sensor_id;sensor_type;location;lat;lon;timestamp;P1;durP1;ratioP1;P2;durP2;ratioP2
2998;SDS011;1509;51.964;7.628;2024-01-16T00:00:14;12.63;;;4.43;;
2998;SDS011;1509;51.964;7.628;2024-01-16T00:02:40;13.50;;;5.33;;
2998;SDS011;1509;51.964;7.628;2024-01-16T00:05:06;7.00;;;4.00;;
2998;SDS011;1509;51.964;7.628;2024-01-16T00:07:32;9.90;;;4.10;;
2998;SDS011;1509;51.964;7.628;2024-01-16T00:09:59;8.40;;;4.37;;
2998;SDS011;1509;51.964;7.628;2024-01-16T00:12:25;9.37;;;4.83;;
2998;SDS011;1509;51.964;7.628;2024-01-16T00:14:50;8.27;;;4.57;;
2998;SDS011;1509;51.964;7.628;2024-01-16T00:17:16;9.47;;;4.43;;
2998;SDS011;1509;51.964;7.628;2024-01-16T00:19:41;8.53;;;4.57;;
2998;SDS011;1509;51.964;7.628;2024-01-16T00:22:07;10.70;;;4.30;;
2998;SDS011;1509;51.964;7.628;2024-01-16T00:24:33;6.73;;;3.90;;
2998;SDS011;1509;51.964;7.628;2024-01-16T00:26:58;10.60;;;5.30;;
2998;SDS011;1509;51.964;7.628;2024-01-16T00:29:24;7.47;;;5.47;;
2998;SDS011;1509;51.964;7.628;2024-01-16T00:31:50;5.80;;;4.20;;
2998;SDS011;1509;51.964;7.628;2024-01-16T00:34:15;18.87;;;5.00;;
2998;SDS011;1509;51.964;7.628;2024-01-16T00:36:41;7.97;;;5.10;;
2998;SDS011;1509;51.964;7.628;2024-01-16T00:39:07;14.10;;;6.37;;
2998;SDS011;1509;51.964;7.628;2024-01-16T00:41:33;14.97;;;5.17;;
2998;SDS011;1509;51.964;7.628;2024-01-16T00:43:58;7.97;;;5.00;;
2998;SDS011;1509;51.964;7.628;2024-01-16T00:46:24;10.00;;;5.40;;
2998;SDS011;1509;51.964;7.628;2024-01-16T00:48:49;9.33;;;5.77;;
2998;SDS011;1509;51.964;7.628;2024-01-16T00:51:15;10.67;;;5.10;;
2998;SDS011;1509;51.964;7.628;2024-01-16T00:53:41;6.53;;;4.43;;
2998;SDS011;1509;51.964;7.628;2024-01-16T00:56:09;12.13;;;5.50;;
2998;SDS011;1509;51.964;7.628;2024-01-16T00:58:35;9.87;;;4.17;;
2998;SDS011;1509;51.964;7.628;2024-01-16T01:01:01;10.67;;;5.73;;
2998;SDS011;1509;51.964;7.628;2024-01-16T01:03:27;7.50;;;5.00;;
2998;SDS011;1509;51.964;7.628;2024-01-16T01:05:52;7.33;;;4.67;;
2998;SDS011;1509;51.964;7.628;2024-01-16T01:08:18;5.53;;;4.60;;
2998;SDS011;1509;51.964;7.628;2024-01-16T01:10:44;16.13;;;5.03;;
2998;SDS011;1509;51.964;7.628;2024-01-16T01:13:12;15.90;;;4.50;;
2998;SDS011;1509;51.964;7.628;2024-01-16T01:15:38;11.60;;;5.13;;
2998;SDS011;1509;51.964;7.628;2024-01-16T01:18:04;14.40;;;5.50;;
2998;SDS011;1509;51.964;7.628;2024-01-16T01:20:31;16.83;;;6.10;;
2998;SDS011;1509;51.964;7.628;2024-01-16T01:22:56;8.53;;;6.00;;
2998;SDS011;1509;51.964;7.628;2024-01-16T01:25:23;6.40;;;4.13;;
2998;SDS011;1509;51.964;7.628;2024-01-16T01:27:51;12.60;;;6.07;;
2998;SDS011;1509;51.964;7.628;2024-01-16T01:30:16;7.13;;;4.50;;
2998;SDS011;1509;51.964;7.628;2024-01-16T01:32:43;8.70;;;5.37;;
2998;SDS011;1509;51.964;7.628;2024-01-16T01:35:09;13.47;;;6.50;;
2998;SDS011;1509;51.964;7.628;2024-01-16T01:37:35;12.53;;;6.43;;
2998;SDS011;1509;51.964;7.628;2024-01-16T01:40:01;22.63;;;5.50;;
2998;SDS011;1509;51.964;7.628;2024-01-16T01:42:26;11.03;;;5.10;;
2998;SDS011;1509;51.964;7.628;2024-01-16T01:44:52;9.40;;;5.33;;
2998;SDS011;1509;51.964;7.628;2024-01-16T01:47:18;7.20;;;4.63;;
2998;SDS011;1509;51.964;7.628;2024-01-16T01:49:44;9.53;;;4.80;;
2998;SDS011;1509;51.964;7.628;2024-01-16T01:52:10;9.67;;;5.10;;
2998;SDS011;1509;51.964;7.628;2024-01-16T01:54:36;8.73;;;5.73;;
2998;SDS011;1509;51.964;7.628;2024-01-16T01:57:03;9.23;;;5.27;;
2998;SDS011;1509;51.964;7.628;2024-01-16T01:59:29;7.80;;;5.60;;
2998;SDS011;1509;51.964;7.628;2024-01-16T02:01:56;7.00;;;4.90;;
2998;SDS011;1509;51.964;7.628;2024-01-16T02:04:22;7.93;;;4.80;;
2998;SDS011;1509;51.964;7.628;2024-01-16T02:06:51;8.50;;;4.90;;
2998;SDS011;1509;51.964;7.628;2024-01-16T02:09:17;13.60;;;6.73;;
2998;SDS011;1509;51.964;7.628;2024-01-16T02:11:43;13.10;;;6.10;;
2998;SDS011;1509;51.964;7.628;2024-01-16T02:14:11;11.23;;;6.00;;
2998;SDS011;1509;51.964;7.628;2024-01-16T02:16:37;16.13;;;5.70;;
2998;SDS011;1509;51.964;7.628;2024-01-16T02:19:04;9.10;;;7.30;;
2998;SDS011;1509;51.964;7.628;2024-01-16T02:21:32;12.07;;;6.47;;
2998;SDS011;1509;51.964;7.628;2024-01-16T02:24:02;12.60;;;6.53;;
2998;SDS011;1509;51.964;7.628;2024-01-16T02:26:32;12.47;;;7.83;;
2998;SDS011;1509;51.964;7.628;2024-01-16T02:29:00;10.53;;;6.60;;
2998;SDS011;1509;51.964;7.628;2024-01-16T02:31:27;11.40;;;7.43;;
2998;SDS011;1509;51.964;7.628;2024-01-16T02:33:53;17.77;;;7.20;;
2998;SDS011;1509;51.964;7.628;2024-01-16T02:36:18;20.27;;;8.63;;
2998;SDS011;1509;51.964;7.628;2024-01-16T02:38:44;11.27;;;7.30;;
2998;SDS011;1509;51.964;7.628;2024-01-16T02:41:11;8.80;;;6.10;;
2998;SDS011;1509;51.964;7.628;2024-01-16T02:43:41;13.23;;;7.00;;
2998;SDS011;1509;51.964;7.628;2024-01-16T02:46:07;16.03;;;7.30;;
2998;SDS011;1509;51.964;7.628;2024-01-16T02:48:33;23.63;;;10.17;;
2998;SDS011;1509;51.964;7.628;2024-01-16T02:51:00;12.80;;;7.57;;
2998;SDS011;1509;51.964;7.628;2024-01-16T02:53:25;11.83;;;7.60;;
2998;SDS011;1509;51.964;7.628;2024-01-16T02:55:53;14.10;;;7.50;;
2998;SDS011;1509;51.964;7.628;2024-01-16T02:58:18;10.33;;;6.20;;
2998;SDS011;1509;51.964;7.628;2024-01-16T03:00:44;11.03;;;6.37;;
2998;SDS011;1509;51.964;7.628;2024-01-16T03:03:10;16.33;;;7.53;;
2998;SDS011;1509;51.964;7.628;2024-01-16T03:05:36;9.73;;;6.50;;
2998;SDS011;1509;51.964;7.628;2024-01-16T03:08:01;18.60;;;7.20;;
2998;SDS011;1509;51.964;7.628;2024-01-16T03:10:27;12.70;;;7.40;;
2998;SDS011;1509;51.964;7.628;2024-01-16T03:12:52;22.47;;;8.33;;
2998;SDS011;1509;51.964;7.628;2024-01-16T03:15:18;12.73;;;6.87;;
2998;SDS011;1509;51.964;7.628;2024-01-16T03:17:47;10.57;;;6.40;;
2998;SDS011;1509;51.964;7.628;2024-01-16T03:20:12;8.30;;;5.97;;
2998;SDS011;1509;51.964;7.628;2024-01-16T03:22:38;14.37;;;7.37;;
2998;SDS011;1509;51.964;7.628;2024-01-16T03:25:04;14.40;;;6.40;;
2998;SDS011;1509;51.964;7.628;2024-01-16T03:27:30;11.70;;;6.67;;
2998;SDS011;1509;51.964;7.628;2024-01-16T03:29:55;12.80;;;7.23;;
2998;SDS011;1509;51.964;7.628;2024-01-16T03:32:21;9.67;;;6.67;;
2998;SDS011;1509;51.964;7.628;2024-01-16T03:34:47;7.47;;;5.20;;
2998;SDS011;1509;51.964;7.628;2024-01-16T03:37:12;14.53;;;7.20;;
2998;SDS011;1509;51.964;7.628;2024-01-16T03:39:38;8.73;;;5.33;;
2998;SDS011;1509;51.964;7.628;2024-01-16T03:42:03;14.87;;;5.10;;
2998;SDS011;1509;51.964;7.628;2024-01-16T03:44:29;10.53;;;6.17;;
2998;SDS011;1509;51.964;7.628;2024-01-16T03:46:55;8.53;;;5.77;;
2998;SDS011;1509;51.964;7.628;2024-01-16T03:49:22;9.90;;;5.30;;
2998;SDS011;1509;51.964;7.628;2024-01-16T03:51:48;9.43;;;4.27;;
2998;SDS011;1509;51.964;7.628;2024-01-16T03:54:14;7.57;;;4.13;;
2998;SDS011;1509;51.964;7.628;2024-01-16T03:56:40;7.07;;;4.87;;
2998;SDS011;1509;51.964;7.628;2024-01-16T03:59:05;7.10;;;4.80;;
2998;SDS011;1509;51.964;7.628;2024-01-16T04:01:31;9.40;;;5.07;;
2998;SDS011;1509;51.964;7.628;2024-01-16T04:04:03;8.57;;;4.43;;
2998;SDS011;1509;51.964;7.628;2024-01-16T04:06:31;10.47;;;6.00;;
2998;SDS011;1509;51.964;7.628;2024-01-16T04:08:57;9.30;;;5.17;;
2998;SDS011;1509;51.964;7.628;2024-01-16T04:11:23;11.90;;;5.53;;
2998;SDS011;1509;51.964;7.628;2024-01-16T04:13:49;9.33;;;5.20;;
2998;SDS011;1509;51.964;7.628;2024-01-16T04:16:15;11.40;;;5.43;;
2998;SDS011;1509;51.964;7.628;2024-01-16T04:18:42;7.53;;;4.63;;
2998;SDS011;1509;51.964;7.628;2024-01-16T04:21:08;9.13;;;5.90;;
2998;SDS011;1509;51.964;7.628;2024-01-16T04:23:34;9.47;;;5.30;;
2998;SDS011;1509;51.964;7.628;2024-01-16T04:26:00;12.63;;;5.90;;
2998;SDS011;1509;51.964;7.628;2024-01-16T04:28:25;9.20;;;4.93;;
2998;SDS011;1509;51.964;7.628;2024-01-16T04:30:54;8.70;;;6.27;;
2998;SDS011;1509;51.964;7.628;2024-01-16T04:33:19;17.07;;;6.53;;
2998;SDS011;1509;51.964;7.628;2024-01-16T04:35:48;7.33;;;4.57;;
2998;SDS011;1509;51.964;7.628;2024-01-16T04:38:13;9.63;;;5.97;;
2998;SDS011;1509;51.964;7.628;2024-01-16T04:40:42;11.60;;;6.03;;
2998;SDS011;1509;51.964;7.628;2024-01-16T04:43:07;7.10;;;4.10;;
2998;SDS011;1509;51.964;7.628;2024-01-16T04:45:33;10.77;;;5.40;;
2998;SDS011;1509;51.964;7.628;2024-01-16T04:47:58;12.00;;;5.60;;
2998;SDS011;1509;51.964;7.628;2024-01-16T04:50:24;14.13;;;6.17;;
2998;SDS011;1509;51.964;7.628;2024-01-16T04:52:56;12.07;;;6.50;;
2998;SDS011;1509;51.964;7.628;2024-01-16T04:55:24;10.27;;;5.60;;
2998;SDS011;1509;51.964;7.628;2024-01-16T04:57:50;10.47;;;6.03;;
2998;SDS011;1509;51.964;7.628;2024-01-16T05:00:16;9.07;;;5.10;;
2998;SDS011;1509;51.964;7.628;2024-01-16T05:02:42;10.17;;;5.50;;
2998;SDS011;1509;51.964;7.628;2024-01-16T05:05:07;10.07;;;5.30;;
2998;SDS011;1509;51.964;7.628;2024-01-16T05:07:33;16.70;;;6.87;;
2998;SDS011;1509;51.964;7.628;2024-01-16T05:10:00;8.83;;;5.70;;
2998;SDS011;1509;51.964;7.628;2024-01-16T05:12:26;12.70;;;6.53;;
2998;SDS011;1509;51.964;7.628;2024-01-16T05:14:52;13.83;;;6.63;;
2998;SDS011;1509;51.964;7.628;2024-01-16T05:17:17;12.90;;;6.90;;
2998;SDS011;1509;51.964;7.628;2024-01-16T05:19:43;9.97;;;5.53;;
2998;SDS011;1509;51.964;7.628;2024-01-16T05:22:09;13.93;;;6.20;;
2998;SDS011;1509;51.964;7.628;2024-01-16T05:24:35;10.90;;;6.00;;
2998;SDS011;1509;51.964;7.628;2024-01-16T05:27:01;9.97;;;5.63;;
2998;SDS011;1509;51.964;7.628;2024-01-16T05:29:26;9.87;;;6.30;;
2998;SDS011;1509;51.964;7.628;2024-01-16T05:31:52;9.83;;;5.43;;
2998;SDS011;1509;51.964;7.628;2024-01-16T05:34:18;13.13;;;5.90;;
2998;SDS011;1509;51.964;7.628;2024-01-16T05:36:43;13.83;;;7.07;;
2998;SDS011;1509;51.964;7.628;2024-01-16T05:39:09;9.70;;;6.07;;
2998;SDS011;1509;51.964;7.628;2024-01-16T05:41:35;10.50;;;6.17;;
2998;SDS011;1509;51.964;7.628;2024-01-16T05:44:01;9.30;;;6.10;;
2998;SDS011;1509;51.964;7.628;2024-01-16T05:46:31;14.00;;;7.27;;
2998;SDS011;1509;51.964;7.628;2024-01-16T05:48:57;10.67;;;5.10;;
2998;SDS011;1509;51.964;7.628;2024-01-16T05:51:22;12.73;;;6.00;;
2998;SDS011;1509;51.964;7.628;2024-01-16T05:53:48;10.47;;;5.07;;
2998;SDS011;1509;51.964;7.628;2024-01-16T05:56:14;13.40;;;5.67;;
2998;SDS011;1509;51.964;7.628;2024-01-16T05:58:39;13.77;;;6.20;;
2998;SDS011;1509;51.964;7.628;2024-01-16T06:01:08;8.47;;;5.00;;
2998;SDS011;1509;51.964;7.628;2024-01-16T06:03:34;8.43;;;5.20;;
2998;SDS011;1509;51.964;7.628;2024-01-16T06:05:59;9.90;;;5.23;;
2998;SDS011;1509;51.964;7.628;2024-01-16T06:08:25;10.87;;;5.40;;
2998;SDS011;1509;51.964;7.628;2024-01-16T06:10:51;13.17;;;5.50;;
2998;SDS011;1509;51.964;7.628;2024-01-16T06:13:18;8.80;;;5.27;;
2998;SDS011;1509;51.964;7.628;2024-01-16T06:15:43;8.93;;;5.70;;
2998;SDS011;1509;51.964;7.628;2024-01-16T06:18:09;13.50;;;5.50;;
2998;SDS011;1509;51.964;7.628;2024-01-16T06:20:35;12.00;;;5.40;;
2998;SDS011;1509;51.964;7.628;2024-01-16T06:23:01;13.20;;;8.23;;
2998;SDS011;1509;51.964;7.628;2024-01-16T06:25:26;12.17;;;6.10;;
2998;SDS011;1509;51.964;7.628;2024-01-16T06:27:52;17.67;;;6.10;;
2998;SDS011;1509;51.964;7.628;2024-01-16T06:30:17;10.40;;;5.13;;
2998;SDS011;1509;51.964;7.628;2024-01-16T06:32:43;9.77;;;5.77;;
2998;SDS011;1509;51.964;7.628;2024-01-16T06:35:09;7.43;;;5.53;;
2998;SDS011;1509;51.964;7.628;2024-01-16T06:37:34;11.20;;;5.40;;
2998;SDS011;1509;51.964;7.628;2024-01-16T06:40:01;10.13;;;6.07;;
2998;SDS011;1509;51.964;7.628;2024-01-16T06:42:27;6.50;;;4.20;;
2998;SDS011;1509;51.964;7.628;2024-01-16T06:44:53;11.60;;;5.20;;
2998;SDS011;1509;51.964;7.628;2024-01-16T06:47:18;10.70;;;5.67;;
2998;SDS011;1509;51.964;7.628;2024-01-16T06:49:44;8.80;;;5.10;;
2998;SDS011;1509;51.964;7.628;2024-01-16T06:52:10;9.70;;;5.77;;
2998;SDS011;1509;51.964;7.628;2024-01-16T06:54:35;16.43;;;6.33;;
2998;SDS011;1509;51.964;7.628;2024-01-16T06:57:01;9.53;;;6.70;;
2998;SDS011;1509;51.964;7.628;2024-01-16T06:59:27;10.17;;;5.60;;
2998;SDS011;1509;51.964;7.628;2024-01-16T07:01:53;10.53;;;6.00;;
2998;SDS011;1509;51.964;7.628;2024-01-16T07:04:20;9.87;;;4.20;;
2998;SDS011;1509;51.964;7.628;2024-01-16T07:06:45;7.80;;;4.03;;
2998;SDS011;1509;51.964;7.628;2024-01-16T07:09:12;7.70;;;5.00;;
2998;SDS011;1509;51.964;7.628;2024-01-16T07:11:38;9.73;;;5.30;;
2998;SDS011;1509;51.964;7.628;2024-01-16T07:14:07;8.20;;;5.60;;
2998;SDS011;1509;51.964;7.628;2024-01-16T07:16:37;8.93;;;5.17;;
2998;SDS011;1509;51.964;7.628;2024-01-16T07:19:03;10.93;;;5.63;;
2998;SDS011;1509;51.964;7.628;2024-01-16T07:21:29;13.17;;;6.20;;
2998;SDS011;1509;51.964;7.628;2024-01-16T07:23:54;9.33;;;4.30;;
2998;SDS011;1509;51.964;7.628;2024-01-16T07:26:20;11.60;;;5.03;;
2998;SDS011;1509;51.964;7.628;2024-01-16T07:28:47;9.10;;;5.13;;
2998;SDS011;1509;51.964;7.628;2024-01-16T07:31:13;12.70;;;5.97;;
2998;SDS011;1509;51.964;7.628;2024-01-16T07:33:41;10.43;;;5.47;;
2998;SDS011;1509;51.964;7.628;2024-01-16T07:36:07;9.53;;;6.03;;
2998;SDS011;1509;51.964;7.628;2024-01-16T07:38:33;7.60;;;5.43;;
2998;SDS011;1509;51.964;7.628;2024-01-16T07:40:59;10.73;;;5.20;;
2998;SDS011;1509;51.964;7.628;2024-01-16T07:43:25;9.10;;;5.53;;
2998;SDS011;1509;51.964;7.628;2024-01-16T07:45:50;7.40;;;5.80;;
2998;SDS011;1509;51.964;7.628;2024-01-16T07:48:16;8.97;;;6.10;;
2998;SDS011;1509;51.964;7.628;2024-01-16T07:50:41;7.93;;;5.17;;
2998;SDS011;1509;51.964;7.628;2024-01-16T07:59:50;11.83;;;5.30;;
2998;SDS011;1509;51.964;7.628;2024-01-16T08:02:16;6.73;;;4.57;;
2998;SDS011;1509;51.964;7.628;2024-01-16T08:04:42;8.97;;;6.40;;
2998;SDS011;1509;51.964;7.628;2024-01-16T08:07:08;9.97;;;5.37;;
2998;SDS011;1509;51.964;7.628;2024-01-16T08:09:33;10.40;;;4.73;;
2998;SDS011;1509;51.964;7.628;2024-01-16T08:12:00;7.00;;;4.97;;
2998;SDS011;1509;51.964;7.628;2024-01-16T08:14:27;8.23;;;5.07;;
2998;SDS011;1509;51.964;7.628;2024-01-16T08:16:54;8.40;;;4.53;;
2998;SDS011;1509;51.964;7.628;2024-01-16T08:19:19;13.50;;;5.00;;
2998;SDS011;1509;51.964;7.628;2024-01-16T08:21:45;9.97;;;4.50;;
2998;SDS011;1509;51.964;7.628;2024-01-16T08:24:11;9.27;;;5.50;;
2998;SDS011;1509;51.964;7.628;2024-01-16T08:26:37;9.10;;;4.93;;
2998;SDS011;1509;51.964;7.628;2024-01-16T08:29:03;11.10;;;5.63;;
2998;SDS011;1509;51.964;7.628;2024-01-16T08:31:29;11.63;;;6.43;;
2998;SDS011;1509;51.964;7.628;2024-01-16T08:33:54;7.80;;;5.27;;
2998;SDS011;1509;51.964;7.628;2024-01-16T08:36:22;11.13;;;6.33;;
2998;SDS011;1509;51.964;7.628;2024-01-16T08:38:47;12.77;;;4.53;;
2998;SDS011;1509;51.964;7.628;2024-01-16T08:41:13;9.40;;;5.10;;
2998;SDS011;1509;51.964;7.628;2024-01-16T08:43:39;9.10;;;6.10;;
2998;SDS011;1509;51.964;7.628;2024-01-16T08:46:07;8.43;;;5.40;;
2998;SDS011;1509;51.964;7.628;2024-01-16T08:48:33;10.57;;;5.47;;
2998;SDS011;1509;51.964;7.628;2024-01-16T08:50:58;9.07;;;6.17;;
2998;SDS011;1509;51.964;7.628;2024-01-16T08:53:30;12.10;;;6.67;;
2998;SDS011;1509;51.964;7.628;2024-01-16T08:55:55;14.70;;;6.80;;
2998;SDS011;1509;51.964;7.628;2024-01-16T08:58:21;7.80;;;5.20;;
2998;SDS011;1509;51.964;7.628;2024-01-16T09:00:47;8.63;;;7.00;;
2998;SDS011;1509;51.964;7.628;2024-01-16T09:03:12;17.10;;;7.97;;
2998;SDS011;1509;51.964;7.628;2024-01-16T09:05:38;8.67;;;5.80;;
2998;SDS011;1509;51.964;7.628;2024-01-16T09:08:04;14.67;;;8.43;;
2998;SDS011;1509;51.964;7.628;2024-01-16T09:10:30;12.70;;;9.20;;
2998;SDS011;1509;51.964;7.628;2024-01-16T09:12:55;13.77;;;7.83;;
2998;SDS011;1509;51.964;7.628;2024-01-16T09:15:21;14.93;;;8.70;;
2998;SDS011;1509;51.964;7.628;2024-01-16T09:17:46;11.10;;;6.23;;
2998;SDS011;1509;51.964;7.628;2024-01-16T09:20:12;17.00;;;9.40;;
2998;SDS011;1509;51.964;7.628;2024-01-16T09:22:38;19.83;;;9.87;;
2998;SDS011;1509;51.964;7.628;2024-01-16T09:25:03;19.70;;;10.57;;
2998;SDS011;1509;51.964;7.628;2024-01-16T09:27:30;16.93;;;10.47;;
2998;SDS011;1509;51.964;7.628;2024-01-16T09:29:56;13.73;;;11.03;;
2998;SDS011;1509;51.964;7.628;2024-01-16T09:32:21;23.30;;;10.40;;
2998;SDS011;1509;51.964;7.628;2024-01-16T09:34:47;27.50;;;11.47;;
2998;SDS011;1509;51.964;7.628;2024-01-16T09:37:12;26.00;;;14.90;;
2998;SDS011;1509;51.964;7.628;2024-01-16T09:39:40;21.93;;;11.07;;
2998;SDS011;1509;51.964;7.628;2024-01-16T09:42:06;23.90;;;12.87;;
2998;SDS011;1509;51.964;7.628;2024-01-16T09:44:32;18.37;;;11.70;;
2998;SDS011;1509;51.964;7.628;2024-01-16T09:46:59;15.43;;;10.10;;
2998;SDS011;1509;51.964;7.628;2024-01-16T09:49:27;23.43;;;11.47;;
2998;SDS011;1509;51.964;7.628;2024-01-16T09:51:54;32.10;;;13.10;;
2998;SDS011;1509;51.964;7.628;2024-01-16T09:54:19;17.37;;;11.20;;
2998;SDS011;1509;51.964;7.628;2024-01-16T09:56:45;26.27;;;13.90;;
2998;SDS011;1509;51.964;7.628;2024-01-16T09:59:16;20.73;;;12.07;;
2998;SDS011;1509;51.964;7.628;2024-01-16T10:01:45;19.97;;;11.90;;
2998;SDS011;1509;51.964;7.628;2024-01-16T10:04:13;20.70;;;12.00;;
2998;SDS011;1509;51.964;7.628;2024-01-16T10:06:40;18.60;;;11.97;;
2998;SDS011;1509;51.964;7.628;2024-01-16T10:09:08;13.90;;;10.93;;
2998;SDS011;1509;51.964;7.628;2024-01-16T10:11:37;15.30;;;10.67;;
2998;SDS011;1509;51.964;7.628;2024-01-16T10:14:03;13.63;;;11.27;;
2998;SDS011;1509;51.964;7.628;2024-01-16T10:19:52;14.30;;;9.80;;
2998;SDS011;1509;51.964;7.628;2024-01-16T10:22:23;11.67;;;9.30;;
2998;SDS011;1509;51.964;7.628;2024-01-16T10:25:05;13.13;;;8.87;;
2998;SDS011;1509;51.964;7.628;2024-01-16T10:27:41;12.50;;;7.43;;
2998;SDS011;1509;51.964;7.628;2024-01-16T10:30:09;28.97;;;10.50;;
2998;SDS011;1509;51.964;7.628;2024-01-16T10:32:41;13.93;;;8.67;;
2998;SDS011;1509;51.964;7.628;2024-01-16T10:35:08;13.27;;;8.97;;
2998;SDS011;1509;51.964;7.628;2024-01-16T10:40:19;18.03;;;9.03;;
2998;SDS011;1509;51.964;7.628;2024-01-16T10:42:56;13.40;;;8.83;;
2998;SDS011;1509;51.964;7.628;2024-01-16T10:45:25;10.70;;;7.87;;
2998;SDS011;1509;51.964;7.628;2024-01-16T10:48:04;8.37;;;6.50;;
2998;SDS011;1509;51.964;7.628;2024-01-16T10:50:31;13.97;;;6.70;;
2998;SDS011;1509;51.964;7.628;2024-01-16T10:53:03;6.60;;;5.13;;
2998;SDS011;1509;51.964;7.628;2024-01-16T10:55:29;12.20;;;6.20;;
2998;SDS011;1509;51.964;7.628;2024-01-16T10:57:56;12.50;;;6.03;;
2998;SDS011;1509;51.964;7.628;2024-01-16T11:00:22;7.90;;;5.27;;
2998;SDS011;1509;51.964;7.628;2024-01-16T11:03:24;7.50;;;4.97;;
2998;SDS011;1509;51.964;7.628;2024-01-16T11:05:49;6.20;;;4.53;;
2998;SDS011;1509;51.964;7.628;2024-01-16T11:08:18;13.80;;;5.30;;
2998;SDS011;1509;51.964;7.628;2024-01-16T11:10:45;6.90;;;4.00;;
2998;SDS011;1509;51.964;7.628;2024-01-16T11:13:14;7.83;;;5.13;;
2998;SDS011;1509;51.964;7.628;2024-01-16T11:15:41;7.73;;;5.33;;
2998;SDS011;1509;51.964;7.628;2024-01-16T11:18:07;7.43;;;4.60;;
2998;SDS011;1509;51.964;7.628;2024-01-16T11:20:34;5.17;;;4.67;;
2998;SDS011;1509;51.964;7.628;2024-01-16T11:23:01;8.27;;;4.43;;
2998;SDS011;1509;51.964;7.628;2024-01-16T11:25:31;5.27;;;3.83;;
2998;SDS011;1509;51.964;7.628;2024-01-16T11:28:09;5.23;;;4.20;;
2998;SDS011;1509;51.964;7.628;2024-01-16T11:30:39;5.60;;;4.20;;
2998;SDS011;1509;51.964;7.628;2024-01-16T11:33:05;6.33;;;4.10;;
2998;SDS011;1509;51.964;7.628;2024-01-16T11:35:51;5.30;;;3.83;;
2998;SDS011;1509;51.964;7.628;2024-01-16T11:38:19;8.53;;;4.50;;
2998;SDS011;1509;51.964;7.628;2024-01-16T11:40:46;12.57;;;4.70;;
2998;SDS011;1509;51.964;7.628;2024-01-16T11:45:57;7.27;;;4.67;;
2998;SDS011;1509;51.964;7.628;2024-01-16T11:48:23;6.90;;;3.57;;
2998;SDS011;1509;51.964;7.628;2024-01-16T11:50:49;6.90;;;3.10;;
2998;SDS011;1509;51.964;7.628;2024-01-16T11:53:30;4.37;;;3.67;;
2998;SDS011;1509;51.964;7.628;2024-01-16T12:01:27;7.80;;;4.13;;
2998;SDS011;1509;51.964;7.628;2024-01-16T12:04:06;7.50;;;4.47;;
2998;SDS011;1509;51.964;7.628;2024-01-16T12:06:34;6.60;;;4.23;;
2998;SDS011;1509;51.964;7.628;2024-01-16T12:09:13;7.10;;;4.77;;
2998;SDS011;1509;51.964;7.628;2024-01-16T12:11:40;5.90;;;3.73;;
2998;SDS011;1509;51.964;7.628;2024-01-16T12:14:12;9.57;;;4.23;;
2998;SDS011;1509;51.964;7.628;2024-01-16T12:16:37;7.27;;;4.20;;
2998;SDS011;1509;51.964;7.628;2024-01-16T12:19:09;12.00;;;4.13;;
2998;SDS011;1509;51.964;7.628;2024-01-16T12:21:45;4.70;;;3.77;;
2998;SDS011;1509;51.964;7.628;2024-01-16T12:24:11;5.77;;;3.83;;
2998;SDS011;1509;51.964;7.628;2024-01-16T12:26:37;5.23;;;3.20;;
2998;SDS011;1509;51.964;7.628;2024-01-16T12:29:04;4.20;;;3.43;;
2998;SDS011;1509;51.964;7.628;2024-01-16T12:31:31;10.77;;;4.00;;
2998;SDS011;1509;51.964;7.628;2024-01-16T12:34:06;4.33;;;3.80;;
2998;SDS011;1509;51.964;7.628;2024-01-16T12:36:34;9.10;;;3.93;;
2998;SDS011;1509;51.964;7.628;2024-01-16T12:39:01;15.10;;;4.13;;
2998;SDS011;1509;51.964;7.628;2024-01-16T12:41:36;4.23;;;3.50;;
2998;SDS011;1509;51.964;7.628;2024-01-16T12:44:06;7.53;;;3.90;;
2998;SDS011;1509;51.964;7.628;2024-01-16T12:46:32;7.73;;;3.67;;
2998;SDS011;1509;51.964;7.628;2024-01-16T12:49:01;5.20;;;2.80;;
2998;SDS011;1509;51.964;7.628;2024-01-16T12:51:27;7.43;;;3.90;;
2998;SDS011;1509;51.964;7.628;2024-01-16T12:53:53;4.80;;;3.50;;
2998;SDS011;1509;51.964;7.628;2024-01-16T12:56:19;6.20;;;4.10;;
2998;SDS011;1509;51.964;7.628;2024-01-16T12:58:48;7.30;;;3.70;;
2998;SDS011;1509;51.964;7.628;2024-01-16T13:01:23;4.67;;;3.37;;
2998;SDS011;1509;51.964;7.628;2024-01-16T13:03:56;5.43;;;3.43;;
2998;SDS011;1509;51.964;7.628;2024-01-16T13:06:24;7.37;;;3.60;;
2998;SDS011;1509;51.964;7.628;2024-01-16T13:08:50;9.00;;;3.80;;
2998;SDS011;1509;51.964;7.628;2024-01-16T13:11:17;5.07;;;3.67;;
2998;SDS011;1509;51.964;7.628;2024-01-16T13:13:46;6.37;;;3.70;;
2998;SDS011;1509;51.964;7.628;2024-01-16T13:16:16;8.37;;;4.37;;
2998;SDS011;1509;51.964;7.628;2024-01-16T13:18:42;6.50;;;3.70;;
2998;SDS011;1509;51.964;7.628;2024-01-16T13:21:08;4.70;;;3.70;;
2998;SDS011;1509;51.964;7.628;2024-01-16T13:23:34;5.93;;;3.97;;
2998;SDS011;1509;51.964;7.628;2024-01-16T13:26:00;4.27;;;3.03;;
2998;SDS011;1509;51.964;7.628;2024-01-16T13:28:29;7.03;;;3.57;;
2998;SDS011;1509;51.964;7.628;2024-01-16T13:30:56;7.77;;;4.30;;
2998;SDS011;1509;51.964;7.628;2024-01-16T13:33:24;6.23;;;3.70;;
2998;SDS011;1509;51.964;7.628;2024-01-16T13:35:52;8.57;;;4.07;;
2998;SDS011;1509;51.964;7.628;2024-01-16T13:38:19;6.73;;;3.47;;
2998;SDS011;1509;51.964;7.628;2024-01-16T13:40:46;8.47;;;3.40;;
2998;SDS011;1509;51.964;7.628;2024-01-16T13:43:12;4.50;;;3.60;;
2998;SDS011;1509;51.964;7.628;2024-01-16T13:45:38;6.20;;;3.50;;
2998;SDS011;1509;51.964;7.628;2024-01-16T13:48:15;8.53;;;3.53;;
2998;SDS011;1509;51.964;7.628;2024-01-16T13:50:55;9.77;;;4.17;;
2998;SDS011;1509;51.964;7.628;2024-01-16T13:53:21;6.03;;;3.50;;
2998;SDS011;1509;51.964;7.628;2024-01-16T13:55:48;10.47;;;3.83;;
2998;SDS011;1509;51.964;7.628;2024-01-16T13:58:13;6.07;;;3.43;;
2998;SDS011;1509;51.964;7.628;2024-01-16T14:00:39;7.27;;;3.70;;
2998;SDS011;1509;51.964;7.628;2024-01-16T14:03:05;5.77;;;2.80;;
2998;SDS011;1509;51.964;7.628;2024-01-16T14:05:31;6.73;;;3.30;;
2998;SDS011;1509;51.964;7.628;2024-01-16T14:07:57;6.60;;;3.63;;
2998;SDS011;1509;51.964;7.628;2024-01-16T14:10:23;4.77;;;3.07;;
2998;SDS011;1509;51.964;7.628;2024-01-16T14:12:50;9.17;;;4.17;;
2998;SDS011;1509;51.964;7.628;2024-01-16T14:15:17;4.40;;;3.00;;
2998;SDS011;1509;51.964;7.628;2024-01-16T14:17:46;6.20;;;3.20;;
2998;SDS011;1509;51.964;7.628;2024-01-16T14:20:13;4.93;;;3.47;;
2998;SDS011;1509;51.964;7.628;2024-01-16T14:22:40;6.80;;;3.27;;
2998;SDS011;1509;51.964;7.628;2024-01-16T14:25:07;5.93;;;4.40;;
2998;SDS011;1509;51.964;7.628;2024-01-16T14:27:39;4.77;;;3.20;;
2998;SDS011;1509;51.964;7.628;2024-01-16T14:30:15;8.27;;;5.60;;
2998;SDS011;1509;51.964;7.628;2024-01-16T14:32:42;6.73;;;3.70;;
2998;SDS011;1509;51.964;7.628;2024-01-16T14:35:09;4.37;;;3.30;;
2998;SDS011;1509;51.964;7.628;2024-01-16T14:37:36;5.60;;;3.27;;
2998;SDS011;1509;51.964;7.628;2024-01-16T14:40:03;4.93;;;3.13;;
2998;SDS011;1509;51.964;7.628;2024-01-16T14:42:41;6.40;;;3.70;;
2998;SDS011;1509;51.964;7.628;2024-01-16T14:45:12;4.50;;;2.93;;
2998;SDS011;1509;51.964;7.628;2024-01-16T14:47:39;5.07;;;3.50;;
2998;SDS011;1509;51.964;7.628;2024-01-16T14:50:05;5.27;;;3.40;;
2998;SDS011;1509;51.964;7.628;2024-01-16T14:52:32;6.77;;;4.10;;
2998;SDS011;1509;51.964;7.628;2024-01-16T14:55:01;9.33;;;4.50;;
2998;SDS011;1509;51.964;7.628;2024-01-16T14:57:27;4.90;;;3.10;;
2998;SDS011;1509;51.964;7.628;2024-01-16T14:59:55;5.23;;;3.33;;
2998;SDS011;1509;51.964;7.628;2024-01-16T15:02:21;7.60;;;5.23;;
2998;SDS011;1509;51.964;7.628;2024-01-16T15:04:47;6.60;;;3.57;;
2998;SDS011;1509;51.964;7.628;2024-01-16T15:07:13;6.10;;;4.70;;
2998;SDS011;1509;51.964;7.628;2024-01-16T15:09:39;4.17;;;3.50;;
2998;SDS011;1509;51.964;7.628;2024-01-16T15:12:05;10.33;;;4.30;;
2998;SDS011;1509;51.964;7.628;2024-01-16T15:14:34;6.30;;;3.70;;
2998;SDS011;1509;51.964;7.628;2024-01-16T15:17:01;6.13;;;4.30;;
2998;SDS011;1509;51.964;7.628;2024-01-16T15:19:29;4.00;;;3.63;;
2998;SDS011;1509;51.964;7.628;2024-01-16T15:21:54;11.87;;;5.07;;
2998;SDS011;1509;51.964;7.628;2024-01-16T15:24:20;5.27;;;4.13;;
2998;SDS011;1509;51.964;7.628;2024-01-16T15:26:53;6.17;;;4.13;;